createdAt,value
2022-09-03T00:02:16.070Z,14.98
2022-09-03T00:04:51.290Z,14.97
2022-09-03T00:07:22.629Z,14.92
2022-09-03T00:10:00.202Z,14.91
2022-09-03T00:12:29.545Z,14.97
2022-09-03T00:15:09.570Z,14.92
2022-09-03T00:17:44.482Z,14.91
2022-09-03T00:20:17.627Z,14.82
2022-09-03T00:22:48.685Z,14.84
2022-09-03T00:25:21.124Z,14.76
2022-09-03T00:27:55.883Z,14.77
2022-09-03T00:30:24.394Z,14.66
2022-09-03T00:33:01.955Z,14.72
2022-09-03T00:35:47.761Z,14.70
2022-09-03T00:38:15.112Z,14.68
2022-09-03T00:41:06.921Z,14.72
2022-09-03T00:44:12.468Z,14.77
2022-09-03T00:46:48.166Z,14.79
2022-09-03T00:49:29.730Z,14.76
2022-09-03T00:52:14.868Z,14.79
2022-09-03T00:54:50.786Z,14.80
2022-09-03T00:57:42.271Z,14.84
2022-09-03T01:00:12.292Z,14.75
2022-09-03T01:02:47.828Z,14.80
2022-09-03T01:05:35.728Z,14.78
2022-09-03T01:08:03.018Z,14.81
2022-09-03T01:10:36.717Z,14.78
2022-09-03T01:13:12.813Z,14.67
2022-09-03T01:16:23.632Z,14.73
2022-09-03T01:19:01.141Z,14.75
2022-09-03T01:22:07.344Z,14.71
2022-09-03T01:25:01.226Z,14.70
2022-09-03T01:28:10.347Z,14.74
2022-09-03T01:30:53.828Z,14.72
2022-09-03T01:33:31.797Z,14.75
2022-09-03T01:36:16.844Z,14.77
2022-09-03T01:38:59.793Z,14.66
2022-09-03T01:41:53.872Z,14.75
2022-09-03T01:44:52.847Z,14.75
2022-09-03T01:47:36.933Z,14.76
2022-09-03T01:50:09.513Z,14.84
2022-09-03T01:53:11.387Z,14.75
2022-09-03T01:56:09.960Z,14.79
2022-09-03T01:58:56.968Z,14.79
2022-09-03T02:01:32.897Z,14.71
2022-09-03T02:04:00.498Z,14.74
2022-09-03T02:06:32.054Z,14.82
2022-09-03T02:08:58.822Z,14.73
2022-09-03T02:11:25.618Z,14.80
2022-09-03T02:13:57.837Z,14.75
2022-09-03T02:16:31.634Z,14.73
2022-09-03T02:19:01.844Z,14.70
2022-09-03T02:21:34.790Z,14.74
2022-09-03T02:24:03.180Z,14.76
2022-09-03T02:26:29.782Z,14.77
2022-09-03T02:28:57.793Z,14.80
2022-09-03T02:31:24.607Z,14.80
2022-09-03T02:33:51.657Z,14.81
2022-09-03T02:36:27.458Z,14.68
2022-09-03T02:38:54.422Z,14.66
2022-09-03T02:41:21.101Z,14.67
2022-09-03T02:43:59.099Z,14.66
2022-09-03T02:46:41.046Z,14.70
2022-09-03T02:49:08.578Z,14.72
2022-09-03T02:51:37.945Z,14.71
2022-09-03T02:54:05.137Z,14.62
2022-09-03T02:56:32.191Z,14.74
2022-09-03T02:58:58.858Z,14.72
2022-09-03T03:01:26.315Z,14.72
2022-09-03T03:03:53.293Z,14.78
2022-09-03T03:06:20.927Z,14.69
2022-09-03T03:08:49.881Z,14.66
2022-09-03T03:11:18.440Z,14.69
2022-09-03T03:13:48.297Z,14.69
2022-09-03T03:16:16.973Z,14.66
2022-09-03T03:18:46.268Z,14.66
2022-09-03T03:21:15.811Z,14.67
2022-09-03T03:23:42.938Z,14.65
2022-09-03T03:26:13.265Z,14.64
2022-09-03T03:28:40.674Z,14.69
2022-09-03T03:31:12.762Z,14.70
2022-09-03T03:33:40.002Z,14.63
2022-09-03T03:36:09.305Z,14.68
2022-09-03T03:38:36.792Z,14.70
2022-09-03T03:41:21.942Z,14.69
2022-09-03T03:43:52.997Z,14.59
2022-09-03T03:46:19.654Z,14.54
2022-09-03T03:48:48.665Z,14.56
2022-09-03T03:51:15.346Z,14.45
2022-09-03T03:53:42.055Z,14.52
2022-09-03T03:56:12.511Z,14.52
2022-09-03T03:58:44.163Z,14.56
2022-09-03T04:01:14.540Z,14.48
2022-09-03T04:03:41.973Z,14.45
2022-09-03T04:06:09.988Z,14.42
2022-09-03T04:08:39.228Z,14.47
2022-09-03T04:11:09.144Z,14.49
2022-09-03T04:13:38.669Z,14.44
2022-09-03T04:16:14.371Z,14.41
2022-09-03T04:18:41.902Z,14.42
2022-09-03T04:21:11.567Z,14.48
2022-09-03T04:23:40.761Z,14.47
2022-09-03T04:26:08.877Z,14.53
2022-09-03T04:28:36.355Z,14.63
2022-09-03T04:31:07.891Z,14.57
2022-09-03T04:33:38.107Z,14.57
2022-09-03T04:36:12.471Z,14.48
2022-09-03T04:38:42.140Z,14.52
2022-09-03T04:41:11.764Z,14.52
2022-09-03T04:43:38.869Z,14.53
2022-09-03T04:46:12.952Z,14.53
2022-09-03T04:48:47.483Z,14.50
2022-09-03T04:51:16.281Z,14.39
2022-09-03T04:53:45.965Z,14.43
2022-09-03T04:56:20.916Z,14.41
2022-09-03T04:58:49.306Z,14.58
2022-09-03T05:01:20.312Z,14.73
2022-09-03T05:03:48.019Z,14.64
2022-09-03T05:06:17.102Z,14.61
2022-09-03T05:08:48.308Z,14.62
2022-09-03T05:11:16.429Z,14.57
2022-09-03T05:13:43.722Z,14.61
2022-09-03T05:16:11.778Z,14.71
2022-09-03T05:18:38.661Z,14.82
2022-09-03T05:21:07.753Z,14.84
2022-09-03T05:23:40.031Z,14.84
2022-09-03T05:26:13.342Z,14.70
2022-09-03T05:28:41.469Z,14.63
2022-09-03T05:31:18.634Z,14.76
2022-09-03T05:33:47.889Z,14.61
2022-09-03T05:36:22.386Z,14.80
2022-09-03T05:38:49.863Z,14.93
2022-09-03T05:41:19.192Z,15.02
2022-09-03T05:43:52.031Z,15.06
2022-09-03T05:46:18.693Z,15.12
2022-09-03T05:48:45.496Z,15.26
2022-09-03T05:51:18.115Z,15.42
2022-09-03T05:53:46.993Z,15.37
2022-09-03T05:56:22.098Z,15.42
2022-09-03T05:58:51.651Z,15.51
2022-09-03T06:01:27.176Z,15.56
2022-09-03T06:04:08.243Z,15.74
2022-09-03T06:06:37.132Z,15.97
2022-09-03T06:09:10.704Z,15.98
2022-09-03T06:11:39.087Z,15.96
2022-09-03T06:14:09.390Z,16.13
2022-09-03T06:16:39.833Z,16.33
2022-09-03T06:19:09.549Z,16.51
2022-09-03T06:21:37.925Z,16.95
2022-09-03T06:24:04.690Z,17.31
2022-09-03T06:26:31.328Z,17.40
2022-09-03T06:28:58.187Z,17.39
2022-09-03T06:31:25.558Z,17.22
2022-09-03T06:33:54.746Z,17.32
2022-09-03T06:36:23.127Z,17.22
2022-09-03T06:38:53.389Z,17.10
2022-09-03T06:41:25.109Z,17.06
2022-09-03T06:43:54.329Z,16.74
2022-09-03T06:46:24.032Z,16.54
2022-09-03T06:48:51.791Z,16.65
2022-09-03T06:51:20.891Z,16.65
2022-09-03T06:54:23.199Z,16.52
2022-09-03T06:56:49.841Z,16.56
2022-09-03T06:59:16.756Z,16.34
2022-09-03T07:01:46.224Z,16.60
2022-09-03T07:04:16.701Z,16.80
2022-09-03T07:06:46.675Z,17.03
2022-09-03T07:09:15.470Z,17.15
2022-09-03T07:11:48.126Z,17.54
2022-09-03T07:14:17.582Z,17.55
2022-09-03T07:16:44.396Z,17.59
2022-09-03T07:19:13.385Z,17.75
2022-09-03T07:21:48.816Z,17.66
2022-09-03T07:24:15.724Z,17.71
2022-09-03T07:26:49.402Z,17.92
2022-09-03T07:29:16.606Z,17.92
2022-09-03T07:31:44.453Z,18.15
2022-09-03T07:34:13.745Z,18.52
2022-09-03T07:36:51.826Z,18.42
2022-09-03T07:39:19.863Z,18.91
2022-09-03T07:41:47.546Z,18.79
2022-09-03T07:44:19.521Z,18.69
2022-09-03T07:46:48.064Z,18.24
2022-09-03T07:49:15.019Z,18.50
2022-09-03T07:51:41.844Z,18.69
2022-09-03T07:54:11.374Z,18.93
2022-09-03T07:56:40.176Z,18.91
2022-09-03T07:59:07.535Z,18.74
2022-09-03T08:01:35.530Z,18.65
2022-09-03T08:04:04.250Z,18.84
2022-09-03T08:06:32.890Z,18.94
2022-09-03T08:09:05.322Z,19.08
2022-09-03T08:11:35.152Z,18.80
2022-09-03T08:14:06.740Z,19.12
2022-09-03T08:16:48.669Z,19.13
2022-09-03T08:19:18.262Z,19.11
2022-09-03T08:21:45.180Z,19.16
2022-09-03T08:24:12.620Z,19.47
2022-09-03T08:26:41.961Z,19.98
2022-09-03T08:29:09.319Z,19.84
2022-09-03T08:31:36.815Z,19.68
2022-09-03T08:34:07.248Z,19.79
2022-09-03T08:36:38.661Z,20.03
2022-09-03T08:39:11.101Z,20.18
2022-09-03T08:42:03.388Z,20.01
2022-09-03T08:44:34.553Z,19.36
2022-09-03T08:47:31.643Z,19.46
2022-09-03T08:50:19.432Z,19.52
2022-09-03T08:53:01.923Z,19.64
2022-09-03T08:55:30.495Z,20.12
2022-09-03T08:58:06.391Z,20.52
2022-09-03T09:01:04.134Z,20.73
2022-09-03T09:03:38.074Z,20.25
2022-09-03T09:06:09.208Z,20.68
2022-09-03T09:08:47.280Z,21.15
2022-09-03T09:11:39.235Z,21.13
2022-09-03T09:14:18.850Z,20.62
2022-09-03T09:16:51.521Z,21.11
2022-09-03T09:19:36.532Z,21.44
2022-09-03T09:22:09.327Z,21.29
2022-09-03T09:24:43.632Z,21.51
2022-09-03T09:27:17.067Z,21.39
2022-09-03T09:29:48.052Z,21.43
2022-09-03T09:32:17.504Z,21.14
2022-09-03T09:34:51.307Z,21.50
2022-09-03T09:37:19.090Z,21.53
2022-09-03T09:39:58.175Z,21.75
2022-09-03T09:42:25.144Z,21.11
2022-09-03T09:44:52.231Z,21.49
2022-09-03T09:47:26.991Z,21.10
2022-09-03T09:49:55.080Z,20.51
2022-09-03T09:52:25.862Z,20.78
2022-09-03T09:54:57.239Z,21.22
2022-09-03T09:57:25.827Z,20.59
2022-09-03T10:00:14.400Z,20.60
2022-09-03T10:02:48.745Z,20.85
2022-09-03T10:05:27.744Z,20.47
2022-09-03T10:08:19.048Z,20.55
2022-09-03T10:10:49.784Z,20.46
2022-09-03T10:13:25.107Z,20.41
2022-09-03T10:15:58.577Z,20.88
2022-09-03T10:18:55.058Z,20.88
2022-09-03T10:21:27.813Z,21.21
2022-09-03T10:23:59.618Z,20.74
2022-09-03T10:26:33.072Z,20.77
2022-09-03T10:29:02.646Z,20.84
2022-09-03T10:31:37.928Z,20.52
2022-09-03T10:34:18.765Z,20.53
2022-09-03T10:37:17.402Z,20.86
2022-09-03T10:39:59.223Z,21.36
2022-09-03T10:42:25.811Z,21.08
2022-09-03T10:45:04.269Z,21.53
2022-09-03T10:48:07.586Z,21.70
2022-09-03T10:50:49.802Z,21.79
2022-09-03T10:53:41.213Z,22.01
2022-09-03T10:56:15.336Z,21.94
2022-09-03T10:59:02.943Z,22.14
2022-09-03T11:01:35.632Z,22.10
2022-09-03T11:04:26.897Z,22.21
2022-09-03T11:07:06.087Z,22.19
2022-09-03T11:09:41.081Z,22.22
2022-09-03T11:12:31.355Z,22.69
2022-09-03T11:15:10.241Z,22.53
2022-09-03T11:17:42.843Z,22.44
2022-09-03T11:20:26.436Z,22.78
2022-09-03T11:23:03.151Z,23.00
2022-09-03T11:25:41.981Z,22.91
2022-09-03T11:28:26.919Z,22.93
2022-09-03T11:31:13.826Z,22.88
2022-09-03T11:33:50.116Z,23.27
2022-09-03T11:36:34.303Z,23.42
2022-09-03T11:39:01.336Z,23.46
2022-09-03T11:41:35.803Z,23.58
2022-09-03T11:44:18.963Z,23.25
2022-09-03T11:46:59.023Z,22.89
2022-09-03T11:49:30.236Z,22.81
2022-09-03T11:52:02.419Z,23.09
2022-09-03T11:54:33.166Z,23.22
2022-09-03T11:57:30.662Z,23.32
2022-09-03T12:00:13.525Z,23.18
2022-09-03T12:02:51.642Z,23.08
2022-09-03T12:05:41.176Z,22.85
2022-09-03T12:08:29.220Z,22.82
2022-09-03T12:11:20.718Z,23.12
2022-09-03T12:14:20.792Z,23.30
2022-09-03T12:16:59.303Z,23.40
2022-09-03T12:19:36.117Z,23.22
2022-09-03T12:22:05.521Z,22.64
2022-09-03T12:24:37.776Z,22.21
2022-09-03T12:27:05.407Z,22.38
2022-09-03T12:29:32.360Z,22.59
2022-09-03T12:32:08.622Z,22.87
2022-09-03T12:34:35.318Z,23.12
2022-09-03T12:37:02.262Z,23.50
2022-09-03T12:42:24.265Z,23.22
2022-09-03T12:44:50.946Z,23.62
2022-09-03T12:47:38.812Z,23.70
2022-09-03T12:50:10.932Z,23.70
2022-09-03T12:52:46.679Z,23.71
2022-09-03T12:55:33.297Z,23.72
2022-09-03T12:58:20.987Z,23.67
2022-09-03T13:00:56.439Z,23.49
2022-09-03T13:03:31.445Z,23.55
2022-09-03T13:06:10.681Z,23.65
2022-09-03T13:08:51.898Z,23.87
2022-09-03T13:11:21.770Z,23.68
2022-09-03T13:14:20.620Z,23.38
2022-09-03T13:16:47.425Z,23.81
2022-09-03T13:19:32.518Z,24.12
2022-09-03T13:22:25.349Z,24.00
2022-09-03T13:25:00.909Z,24.21
2022-09-03T13:27:47.084Z,24.29
2022-09-03T13:30:20.010Z,24.63
2022-09-03T13:33:09.517Z,24.27
2022-09-03T13:36:03.509Z,24.23
2022-09-03T13:38:57.566Z,24.18
2022-09-03T13:41:36.678Z,24.20
2022-09-03T13:44:16.742Z,24.38
2022-09-03T13:46:56.197Z,24.70
2022-09-03T13:49:47.679Z,24.75
2022-09-03T13:52:31.083Z,24.33
2022-09-03T13:55:03.956Z,24.13
2022-09-03T13:57:34.458Z,24.02
2022-09-03T14:00:13.478Z,23.73
2022-09-03T14:02:58.576Z,23.46
2022-09-03T14:05:57.572Z,23.63
2022-09-03T14:09:01.565Z,24.04
2022-09-03T14:11:51.225Z,24.11
2022-09-03T14:14:33.334Z,24.07
2022-09-03T14:17:02.016Z,23.91
2022-09-03T14:19:31.562Z,23.79
2022-09-03T14:22:15.440Z,23.66
2022-09-03T14:25:02.773Z,23.67
2022-09-03T14:27:31.529Z,23.82
2022-09-03T14:30:18.760Z,24.10
2022-09-03T14:32:51.337Z,24.15
2022-09-03T14:35:23.875Z,24.28
2022-09-03T14:37:50.477Z,24.33
2022-09-03T14:40:22.070Z,24.26
2022-09-03T14:43:24.212Z,24.17
2022-09-03T14:46:03.680Z,24.09
2022-09-03T14:48:54.634Z,23.81
2022-09-03T14:51:26.831Z,23.58
2022-09-03T14:54:04.518Z,23.37
2022-09-03T14:57:17.970Z,23.61
2022-09-03T14:59:57.898Z,23.62
2022-09-03T15:02:24.472Z,23.69
2022-09-03T15:05:20.550Z,23.71
2022-09-03T15:08:01.629Z,23.62
2022-09-03T15:10:46.114Z,23.44
2022-09-03T15:13:30.936Z,23.33
2022-09-03T15:16:13.415Z,23.17
2022-09-03T15:18:48.524Z,22.98
2022-09-03T15:21:34.232Z,22.63
2022-09-03T15:24:22.063Z,22.27
2022-09-03T15:27:10.275Z,22.27
2022-09-03T15:29:49.758Z,22.36
2022-09-03T15:32:35.529Z,22.27
2022-09-03T15:35:05.323Z,22.51
2022-09-03T15:37:47.640Z,22.37
2022-09-03T15:40:37.648Z,22.44
2022-09-03T15:43:15.736Z,22.34
2022-09-03T15:45:58.872Z,22.47
2022-09-03T15:48:39.308Z,22.70
2022-09-03T15:51:26.599Z,22.56
2022-09-03T15:54:07.778Z,22.43
2022-09-03T15:56:47.130Z,22.44
2022-09-03T15:59:19.635Z,22.38
2022-09-03T16:01:54.641Z,22.44
2022-09-03T16:04:39.085Z,22.26
2022-09-03T16:07:14.793Z,22.03
2022-09-03T16:10:01.947Z,21.99
2022-09-03T16:13:14.620Z,21.84
2022-09-03T16:15:50.380Z,21.66
2022-09-03T16:18:49.307Z,21.66
2022-09-03T16:21:44.360Z,21.53
2022-09-03T16:24:19.880Z,21.26
2022-09-03T16:26:52.073Z,21.25
2022-09-03T16:29:30.967Z,21.17
2022-09-03T16:32:03.590Z,21.18
2022-09-03T16:35:04.241Z,21.09
2022-09-03T16:37:34.688Z,21.14
2022-09-03T16:40:27.495Z,21.08
2022-09-03T16:43:39.462Z,21.10
2022-09-03T16:46:33.196Z,21.04
2022-09-03T16:49:21.957Z,20.97
2022-09-03T16:52:10.883Z,20.89
2022-09-03T16:55:36.345Z,20.92
2022-09-03T16:58:09.887Z,20.95
2022-09-03T17:01:06.944Z,20.86
2022-09-03T17:04:02.820Z,20.89
2022-09-03T17:06:50.826Z,20.86
2022-09-03T17:09:26.585Z,20.66
2022-09-03T17:12:13.984Z,20.36
2022-09-03T17:15:15.816Z,20.07
2022-09-03T17:17:49.536Z,19.98
2022-09-03T17:20:30.096Z,19.74
2022-09-03T17:23:09.882Z,19.64
2022-09-03T17:25:48.616Z,19.56
2022-09-03T17:28:51.756Z,19.37
2022-09-03T17:31:31.504Z,19.23
2022-09-03T17:34:17.272Z,19.17
2022-09-03T17:37:48.703Z,19.08
2022-09-03T17:40:33.627Z,19.01
2022-09-03T17:43:14.556Z,18.93
2022-09-03T17:46:19.026Z,18.88
2022-09-03T17:48:51.568Z,18.89
2022-09-03T17:51:33.403Z,18.76
2022-09-03T17:54:17.722Z,18.71
2022-09-03T17:57:13.176Z,18.76
2022-09-03T17:59:55.027Z,18.68
2022-09-03T18:02:29.149Z,18.58
2022-09-03T18:05:09.096Z,18.59
2022-09-03T18:08:03.331Z,18.61
2022-09-03T18:10:48.569Z,18.52
2022-09-03T18:13:50.574Z,18.41
2022-09-03T18:16:31.858Z,18.27
2022-09-03T18:19:30.778Z,18.20
2022-09-03T18:22:20.621Z,18.08
2022-09-03T18:25:13.686Z,18.02
2022-09-03T18:28:05.494Z,17.89
2022-09-03T18:30:52.910Z,17.89
2022-09-03T18:33:43.179Z,17.92
2022-09-03T18:36:29.848Z,17.77
2022-09-03T18:39:33.424Z,17.83
2022-09-03T18:42:47.031Z,17.48
2022-09-03T18:46:17.617Z,17.80
2022-09-03T18:48:46.641Z,17.75
2022-09-03T18:51:48.625Z,17.68
2022-09-03T18:55:06.729Z,17.67
2022-09-03T18:58:08.282Z,17.20
2022-09-03T19:00:57.636Z,17.52
2022-09-03T19:04:13.864Z,17.50
2022-09-03T19:07:23.250Z,17.51
2022-09-03T19:10:26.798Z,17.57
2022-09-03T19:13:27.492Z,17.56
2022-09-03T19:16:23.464Z,17.37
2022-09-03T19:19:30.713Z,17.46
2022-09-03T19:22:27.889Z,17.41
2022-09-03T19:25:21.211Z,17.39
2022-09-03T19:28:21.249Z,17.32
2022-09-03T19:31:23.128Z,17.20
2022-09-03T19:35:13.236Z,17.26
2022-09-03T19:38:26.708Z,17.18
2022-09-03T19:41:15.139Z,17.16
2022-09-03T19:44:07.134Z,17.10
2022-09-03T19:46:55.318Z,17.11
2022-09-03T19:49:43.085Z,17.09
2022-09-03T19:52:45.460Z,17.02
2022-09-03T19:55:37.638Z,17.02
2022-09-03T19:58:42.106Z,16.90
2022-09-03T20:01:29.786Z,16.90
2022-09-03T20:04:19.488Z,16.83
2022-09-03T20:07:05.878Z,16.78
2022-09-03T20:09:58.561Z,16.64
2022-09-03T20:12:30.236Z,16.64
2022-09-03T20:14:56.950Z,16.62
2022-09-03T20:17:38.431Z,16.68
2022-09-03T20:20:38.586Z,16.65
2022-09-03T20:23:28.210Z,16.51
2022-09-03T20:26:11.071Z,16.49
2022-09-03T20:29:07.710Z,16.41
2022-09-03T20:31:55.241Z,16.29
2022-09-03T20:34:36.108Z,16.20
2022-09-03T20:37:24.937Z,16.13
2022-09-03T20:40:04.943Z,16.18
2022-09-03T20:42:57.676Z,16.14
2022-09-03T20:45:44.455Z,16.02
2022-09-03T20:48:32.215Z,15.98
2022-09-03T20:51:12.152Z,15.91
2022-09-03T20:54:21.200Z,15.95
2022-09-03T20:56:56.824Z,15.95
2022-09-03T20:59:32.580Z,15.98
2022-09-03T21:02:14.497Z,16.02
2022-09-03T21:05:06.296Z,15.95
2022-09-03T21:08:00.256Z,16.02
2022-09-03T21:10:36.916Z,16.17
2022-09-03T21:13:13.532Z,16.00
2022-09-03T21:16:09.723Z,15.91
2022-09-03T21:18:42.258Z,15.84
2022-09-03T21:21:11.945Z,15.84
2022-09-03T21:23:44.122Z,15.87
2022-09-03T21:26:17.160Z,15.84
2022-09-03T21:28:51.014Z,15.83
2022-09-03T21:31:31.991Z,15.80
2022-09-03T21:34:11.376Z,15.77
2022-09-03T21:36:41.675Z,15.84
2022-09-03T21:39:20.937Z,15.82
2022-09-03T21:42:14.042Z,15.88
2022-09-03T21:44:40.761Z,15.89
2022-09-03T21:47:15.976Z,15.87
2022-09-03T21:50:07.398Z,15.86
2022-09-03T21:52:44.648Z,15.82
2022-09-03T21:55:34.422Z,15.89
2022-09-03T21:58:16.414Z,15.90
2022-09-03T22:00:45.123Z,15.85
2022-09-03T22:03:13.441Z,15.89
2022-09-03T22:06:12.145Z,15.69
2022-09-03T22:08:49.195Z,15.68
2022-09-03T22:11:46.383Z,15.73
2022-09-03T22:14:16.538Z,15.76
2022-09-03T22:17:10.917Z,15.49
2022-09-03T22:19:40.285Z,15.48
2022-09-03T22:22:27.209Z,15.29
2022-09-03T22:25:29.881Z,15.47
2022-09-03T22:28:11.873Z,15.51
2022-09-03T22:30:53.850Z,15.56
2022-09-03T22:33:47.023Z,15.58
2022-09-03T22:36:19.808Z,15.53
2022-09-03T22:39:24.685Z,15.47
2022-09-03T22:42:12.768Z,15.46
2022-09-03T22:45:12.476Z,15.52
2022-09-03T22:48:00.528Z,15.49
2022-09-03T22:50:45.736Z,15.27
2022-09-03T22:53:36.478Z,15.21
2022-09-03T22:56:12.457Z,15.12
2022-09-03T22:58:57.300Z,15.00
2022-09-03T23:02:03.032Z,14.85
2022-09-03T23:04:37.124Z,14.73
2022-09-03T23:07:42.571Z,14.66
2022-09-03T23:10:14.614Z,14.52
2022-09-03T23:13:01.485Z,14.44
2022-09-03T23:15:30.578Z,14.38
2022-09-03T23:18:15.429Z,14.24
2022-09-03T23:20:48.829Z,14.24
2022-09-03T23:23:25.664Z,14.20
2022-09-03T23:26:17.636Z,14.12
2022-09-03T23:28:54.754Z,14.30
2022-09-03T23:31:25.005Z,14.23
2022-09-03T23:33:53.909Z,14.17
2022-09-03T23:37:32.494Z,14.06
2022-09-03T23:40:28.663Z,13.98
2022-09-03T23:43:13.572Z,13.96
2022-09-03T23:46:05.259Z,13.87
2022-09-03T23:48:40.862Z,13.87
2022-09-03T23:51:19.648Z,13.63
2022-09-03T23:53:52.564Z,13.47
2022-09-03T23:56:31.297Z,13.44
2022-09-03T23:59:35.706Z,13.39
